Time;durP1;ratioP1;P1;durP2;ratioP2;P2;SDS_P1;SDS_P2;PMS_P1;PMS_P2;Temp;Humidity;BMP_temperature;BMP_pressure;BME280_temperature;BME280_humidity;BME280_pressure;Samples;Min_cycle;Max_cycle;Signal;HPM_P1;HPM_P2
2021/09/04 00:02:36;;;;;;;23.70;12.82;;;;;;;11.56;73.85;100342.86;2234192;78;21504;-74
2021/09/04 00:05:37;;;;;;;32.63;14.98;;;;;;;11.52;73.61;100346.87;2233205;78;20977;-72
2021/09/04 00:08:38;;;;;;;32.42;15.30;;;;;;;11.47;73.62;100347.86;2226625;78;21495;-76
2021/09/04 00:11:40;;;;;;;33.45;16.45;;;;;;;11.46;73.62;100353.68;2251768;78;21018;-74
2021/09/04 00:14:41;;;;;;;37.10;16.23;;;;;;;11.45;73.79;100352.00;2251020;77;21005;-75
2021/09/04 00:17:43;;;;;;;35.20;15.93;;;;;;;11.34;73.57;100339.05;2223090;79;20986;-74
2021/09/04 00:20:44;;;;;;;39.70;17.27;;;;;;;11.30;73.53;100328.44;2217223;79;20974;-75
2021/09/04 00:23:46;;;;;;;33.40;16.75;;;;;;;11.30;73.53;100328.44;2237637;79;20967;-75
2021/09/04 00:26:47;;;;;;;27.87;14.50;;;;;;;11.41;73.59;100342.21;2236028;78;20970;-75
2021/09/04 00:29:48;;;;;;;34.05;16.12;;;;;;;11.19;73.48;100321.13;2235724;78;21044;-73
2021/09/04 00:32:49;;;;;;;35.98;17.73;;;;;;;11.19;73.48;100321.13;2236793;78;20962;-74
2021/09/04 00:35:50;;;;;;;32.50;14.18;;;;;;;11.21;73.80;100331.09;2233944;78;20977;-75
2021/09/04 00:38:51;;;;;;;67.47;25.90;;;;;;;11.12;73.54;100328.58;2238015;78;20970;-74
2021/09/04 00:41:52;;;;;;;36.95;16.02;;;;;;;10.97;73.83;100329.73;2237502;78;21450;-76
2021/09/04 00:44:53;;;;;;;62.00;15.60;;;;;;;10.85;74.21;100321.27;2234792;78;20988;-75
2021/09/04 00:48:04;;;;;;;30.17;13.48;;;;;;;10.85;74.21;100321.27;2236972;78;20979;-75
2021/09/04 00:51:06;;;;;;;29.48;12.78;;;;;;;10.73;74.22;100327.38;2237725;78;20943;-76
2021/09/04 00:54:08;;;;;;;27.82;12.53;;;;;;;10.66;74.55;100326.36;2236623;78;21025;-74
2021/09/04 00:57:09;;;;;;;36.05;16.45;;;;;;;10.60;74.39;100325.69;2239267;78;20970;-74
2021/09/04 01:00:12;;;;;;;24.92;12.47;;;;;;;10.57;74.43;100329.16;2242099;78;21045;-75
2021/09/04 01:03:13;;;;;;;32.40;14.40;;;;;;;10.55;74.21;100326.16;2240044;78;21760;-76
2021/09/04 01:06:16;;;;;;;32.38;15.48;;;;;;;10.55;74.04;100329.31;2239653;78;21073;-75
2021/09/04 01:09:17;;;;;;;37.58;18.25;;;;;;;10.54;74.00;100339.60;2233424;78;21022;-76
2021/09/04 01:12:18;;;;;;;34.88;17.35;;;;;;;10.52;73.97;100340.25;2237289;78;20935;-75
2021/09/04 01:15:20;;;;;;;32.35;14.93;;;;;;;10.47;74.32;100341.22;2240176;78;20989;-75
2021/09/04 01:18:23;;;;;;;48.33;16.97;;;;;;;10.40;74.65;100337.06;2235471;78;21046;-75
2021/09/04 01:21:24;;;;;;;36.25;16.67;;;;;;;10.27;74.79;100341.47;2235479;78;21484;-73
2021/09/04 01:24:25;;;;;;;32.98;14.73;;;;;;;10.29;74.73;100350.11;2236298;78;21028;-75
2021/09/04 01:27:27;;;;;;;31.85;16.37;;;;;;;10.31;75.13;100345.48;2236382;78;20982;-73
2021/09/04 01:30:29;;;;;;;29.72;14.70;;;;;;;10.32;74.84;100351.11;2237279;78;21036;-75
2021/09/04 01:33:31;;;;;;;25.88;14.83;;;;;;;10.29;74.46;100350.11;2238476;78;20993;-75
2021/09/04 01:36:35;;;;;;;30.95;15.93;;;;;;;10.29;74.75;100342.16;2239786;78;21084;-74
2021/09/04 01:39:36;;;;;;;28.05;14.05;;;;;;;10.26;74.54;100341.62;2233787;78;21894;-74
2021/09/04 01:42:38;;;;;;;25.68;14.33;;;;;;;10.22;74.38;100342.44;2239646;78;20954;-75
2021/09/04 01:45:40;;;;;;;27.10;14.65;;;;;;;10.17;74.34;100333.30;2228567;78;21092;-74
2021/09/04 01:48:41;;;;;;;29.90;16.37;;;;;;;10.13;74.37;100334.09;2203748;79;21036;-73
2021/09/04 01:51:42;;;;;;;30.88;14.85;;;;;;;10.05;74.32;100332.25;2208098;79;21029;-75
2021/09/04 01:54:43;;;;;;;26.82;15.45;;;;;;;9.99;74.33;100331.53;2211929;79;20947;-75
2021/09/04 01:57:44;;;;;;;35.25;16.82;;;;;;;10.06;74.64;100330.42;2182189;81;21056;-75
2021/09/04 02:00:45;;;;;;;37.90;20.05;;;;;;;10.09;74.54;100322.97;2174064;81;21424;-74
2021/09/04 02:03:46;;;;;;;34.15;19.55;;;;;;;10.10;74.39;100324.63;2199256;80;20981;-75
2021/09/04 02:06:47;;;;;;;35.78;21.40;;;;;;;10.07;74.06;100328.92;2193290;80;21499;-73
2021/09/04 02:09:48;;;;;;;31.07;17.23;;;;;;;10.02;74.20;100324.62;2196686;79;20977;-75
2021/09/04 02:12:49;;;;;;;72.15;14.98;;;;;;;9.98;74.48;100325.08;2201901;80;21032;-76
2021/09/04 02:15:51;;;;;;;27.87;15.45;;;;;;;9.99;74.87;100328.05;2197230;79;21476;-73
2021/09/04 02:18:53;;;;;;;23.20;14.00;;;;;;;9.94;74.69;100327.22;2194224;80;21530;-75
2021/09/04 02:21:55;;;;;;;21.45;12.05;;;;;;;9.85;74.57;100322.37;2178563;80;21138;-75
2021/09/04 02:24:56;;;;;;;26.48;13.22;;;;;;;9.86;74.93;100325.84;2179264;80;21051;-76
2021/09/04 02:27:57;;;;;;;18.35;12.68;;;;;;;9.83;74.93;100329.64;2217268;79;21081;-74
2021/09/04 02:30:59;;;;;;;24.75;13.20;;;;;;;9.83;74.77;100327.48;2224422;79;21050;-74
2021/09/04 02:34:00;;;;;;;27.02;13.22;;;;;;;9.81;74.81;100328.95;2228392;79;21041;-76
2021/09/04 02:37:03;;;;;;;19.82;12.88;;;;;;;9.83;75.04;100319.53;2224317;79;21503;-74
2021/09/04 02:40:08;;;;;;;26.02;12.73;;;;;;;9.81;74.97;100327.63;2217231;79;21043;-75
2021/09/04 02:43:09;;;;;;;16.20;11.00;;;;;;;9.77;74.94;100323.64;2203586;79;21534;-75
2021/09/04 02:46:12;;;;;;;18.70;10.68;;;;;;;9.77;74.73;100334.71;2209691;79;21517;-74
2021/09/04 02:49:13;;;;;;;19.37;12.20;;;;;;;9.74;74.74;100335.03;2233621;78;21097;-74
2021/09/04 02:52:15;;;;;;;38.28;14.83;;;;;;;9.77;74.76;100335.57;2231583;78;21132;-75
2021/09/04 02:55:17;;;;;;;39.73;15.68;;;;;;;9.69;74.84;100341.31;2235571;78;20958;-75
2021/09/04 02:58:18;;;;;;;31.27;15.35;;;;;;;9.61;75.05;100338.93;2236364;78;21016;-75
2021/09/04 03:01:19;;;;;;;34.08;15.25;;;;;;;9.59;74.98;100342.72;2235496;78;21440;-75
2021/09/04 03:04:20;;;;;;;25.02;12.45;;;;;;;9.57;75.02;100338.06;2238703;78;22383;-74
2021/09/04 03:07:22;;;;;;;23.67;9.65;;;;;;;9.50;75.09;100331.73;2235502;78;21568;-74
2021/09/04 03:10:23;;;;;;;17.45;10.15;;;;;;;9.41;75.08;100329.02;2237989;78;21591;-75
2021/09/04 03:13:24;;;;;;;19.30;10.18;;;;;;;9.36;75.32;100328.65;2233343;78;21004;-76
2021/09/04 03:16:25;;;;;;;17.27;9.98;;;;;;;9.37;75.26;100332.13;2236432;78;21006;-75
2021/09/04 03:19:26;;;;;;;20.82;9.95;;;;;;;9.32;75.09;100335.72;2234019;78;22466;-75
2021/09/04 03:22:28;;;;;;;11.60;8.95;;;;;;;9.35;75.20;100326.17;2235800;78;21437;-75
2021/09/04 03:25:30;;;;;;;13.98;10.03;;;;;;;9.33;75.19;100326.31;2231755;78;20993;-75
2021/09/04 03:28:31;;;;;;;13.10;9.45;;;;;;;9.32;75.13;100321.16;2236571;78;21021;-74
2021/09/04 03:31:33;;;;;;;10.38;8.40;;;;;;;9.23;75.17;100322.08;2233414;78;21364;-75
2021/09/04 03:34:34;;;;;;;11.60;8.40;;;;;;;9.20;75.23;100327.19;2236631;78;20990;-74
2021/09/04 03:37:36;;;;;;;16.52;7.80;;;;;;;9.16;75.39;100325.84;2236427;78;21050;-75
2021/09/04 03:40:39;;;;;;;31.35;10.58;;;;;;;9.14;75.52;100331.77;2239175;78;20998;-74
2021/09/04 03:43:41;;;;;;;42.67;10.43;;;;;;;8.94;75.71;100337.71;2232842;78;21029;-75
2021/09/04 03:46:43;;;;;;;38.40;10.43;;;;;;;8.86;76.09;100336.30;2239565;78;21028;-75
2021/09/04 03:49:44;;;;;;;37.28;12.03;;;;;;;8.76;76.05;100333.73;2240311;79;20983;-75
2021/09/04 03:52:45;;;;;;;32.60;11.85;;;;;;;8.57;75.93;100337.83;2242262;79;21030;-75
2021/09/04 03:55:47;;;;;;;22.32;12.80;;;;;;;8.45;76.30;100331.42;2244116;79;20994;-72
2021/09/04 03:58:48;;;;;;;26.75;12.33;;;;;;;8.51;76.65;100333.97;2240879;79;21014;-73
2021/09/04 04:01:50;;;;;;;18.98;11.38;;;;;;;8.63;76.92;100335.41;2240056;79;21044;-75
2021/09/04 04:04:52;;;;;;;20.05;11.15;;;;;;;8.75;76.69;100342.14;2243965;78;21005;-75
2021/09/04 04:07:55;;;;;;;19.40;11.00;;;;;;;8.75;76.65;100346.11;2240060;79;21533;-74
2021/09/04 04:11:11;;;;;;;21.00;10.90;;;;;;;8.78;76.51;100347.62;2237841;78;21646;-73
2021/09/04 04:14:13;;;;;;;20.15;11.33;;;;;;;8.78;76.19;100346.80;2239344;79;20965;-76
2021/09/04 04:17:15;;;;;;;18.02;11.22;;;;;;;8.72;76.09;100349.06;2241861;79;21541;-75
2021/09/04 04:20:17;;;;;;;24.90;11.15;;;;;;;8.70;76.03;100350.19;2239327;78;21512;-74
2021/09/04 04:23:19;;;;;;;22.62;13.93;;;;;;;8.70;76.13;100360.77;2240514;79;21052;-75
2021/09/04 04:26:20;;;;;;;16.87;8.95;;;;;;;8.71;76.16;100361.12;2239016;79;20962;-73
2021/09/04 04:29:22;;;;;;;12.55;8.83;;;;;;;8.71;76.05;100357.16;2242117;79;21034;-75
2021/09/04 04:32:23;;;;;;;13.20;9.05;;;;;;;8.69;76.05;100357.30;2242920;79;21542;-74
2021/09/04 04:35:25;;;;;;;12.33;8.65;;;;;;;8.75;76.04;100356.70;2238898;78;20977;-75
2021/09/04 04:38:27;;;;;;;15.43;9.20;;;;;;;8.78;76.04;100360.03;2238204;79;21054;-74
2021/09/04 04:41:28;;;;;;;11.35;7.78;;;;;;;8.78;76.08;100364.00;2239779;79;21046;-72
2021/09/04 04:44:30;;;;;;;13.68;9.63;;;;;;;8.87;76.35;100367.92;2242375;78;21029;-76
2021/09/04 04:47:32;;;;;;;22.10;11.90;;;;;;;8.97;76.57;100369.99;2235666;78;21041;-74
2021/09/04 04:50:34;;;;;;;27.98;13.53;;;;;;;9.12;76.79;100366.82;2239907;78;21047;-73
2021/09/04 04:53:35;;;;;;;24.85;13.45;;;;;;;9.30;76.75;100370.31;2232959;78;20949;-74
2021/09/04 04:56:36;;;;;;;21.07;10.25;;;;;;;9.43;76.60;100375.20;2230590;78;21033;-75
2021/09/04 04:59:37;;;;;;;19.12;11.12;;;;;;;9.64;76.56;100376.21;2239359;78;20903;-75
2021/09/04 05:02:40;;;;;;;13.15;9.58;;;;;;;9.86;76.37;100373.55;2234714;78;21003;-75
2021/09/04 05:05:42;;;;;;;13.18;10.00;;;;;;;10.17;76.86;100378.38;2236884;78;21058;-77
2021/09/04 05:08:43;;;;;;;14.78;9.75;;;;;;;10.55;76.85;100367.78;2233032;78;21012;-76
2021/09/04 05:11:47;;;;;;;20.43;10.25;;;;;;;10.89;76.51;100365.05;2237635;78;21005;-73
2021/09/04 05:14:48;;;;;;;15.60;10.18;;;;;;;11.30;76.42;100373.09;2238141;78;21065;-76
2021/09/04 05:17:49;;;;;;;19.82;13.85;;;;;;;11.81;76.31;100373.73;2231670;78;21017;-75
2021/09/04 05:20:52;;;;;;;21.33;13.05;;;;;;;12.24;75.74;100371.66;2235034;78;21495;-74
2021/09/04 05:23:54;;;;;;;21.02;12.70;;;;;;;12.65;75.67;100360.03;2236798;78;21022;-74
2021/09/04 05:26:55;;;;;;;17.00;11.28;;;;;;;13.13;75.37;100362.89;2235548;78;21074;-74
2021/09/04 05:29:56;;;;;;;18.85;13.25;;;;;;;13.74;75.00;100362.94;2236364;78;21496;-74
2021/09/04 05:32:57;;;;;;;21.05;12.75;;;;;;;14.18;74.51;100363.97;2237727;78;21017;-73
2021/09/04 05:35:58;;;;;;;20.12;13.60;;;;;;;14.54;73.73;100367.56;2232755;78;21013;-73
2021/09/04 05:39:00;;;;;;;20.88;13.25;;;;;;;14.93;73.59;100368.22;2238169;78;20989;-74
2021/09/04 05:42:01;;;;;;;21.65;15.15;;;;;;;15.47;73.58;100365.04;2235805;78;20980;-74
2021/09/04 05:45:02;;;;;;;20.95;16.10;;;;;;;16.05;72.79;100367.05;2233956;78;21040;-74
2021/09/04 05:48:04;;;;;;;21.57;16.45;;;;;;;16.38;71.84;100366.91;2239842;78;21548;-74
2021/09/04 05:51:05;;;;;;;22.22;15.18;;;;;;;16.67;71.30;100364.45;2236779;78;21026;-74
2021/09/04 05:54:06;;;;;;;21.40;15.65;;;;;;;17.15;70.94;100363.09;2233877;78;20958;-74
2021/09/04 05:57:07;;;;;;;21.65;14.50;;;;;;;17.70;70.83;100362.37;2233790;78;20963;-72
2021/09/04 06:00:10;;;;;;;22.70;16.48;;;;;;;18.24;70.21;100357.25;2237014;78;21044;-74
2021/09/04 06:03:14;;;;;;;21.42;14.70;;;;;;;18.56;68.71;100359.53;2235284;78;21035;-74
2021/09/04 06:06:15;;;;;;;23.22;15.53;;;;;;;18.65;68.05;100356.60;2236714;78;21461;-74
2021/09/04 06:09:16;;;;;;;22.27;15.95;;;;;;;18.80;67.88;100359.85;2234248;78;21512;-73
2021/09/04 06:12:17;;;;;;;20.52;14.58;;;;;;;19.13;67.28;100356.16;2236678;78;21806;-74
2021/09/04 06:15:18;;;;;;;24.80;16.40;;;;;;;19.38;67.05;100362.91;2236584;78;21018;-75
2021/09/04 06:18:19;;;;;;;25.55;15.98;;;;;;;19.65;66.05;100368.42;2234512;78;20971;-74
2021/09/04 06:21:20;;;;;;;22.55;17.10;;;;;;;19.63;65.60;100374.51;2233061;78;21520;-74
2021/09/04 06:24:21;;;;;;;21.77;15.83;;;;;;;19.62;65.20;100370.15;2233529;78;21006;-73
2021/09/04 06:27:22;;;;;;;24.50;16.12;;;;;;;19.79;65.12;100369.63;2234906;78;21461;-74
2021/09/04 06:30:23;;;;;;;25.97;16.65;;;;;;;20.04;64.70;100365.55;2234854;78;20974;-74
2021/09/04 06:33:25;;;;;;;26.70;17.42;;;;;;;20.26;63.88;100364.08;2237490;78;21630;-73
2021/09/04 06:36:26;;;;;;;30.40;18.07;;;;;;;20.23;63.09;100363.71;2235324;78;20918;-73
2021/09/04 06:39:27;;;;;;;23.85;17.80;;;;;;;20.07;62.81;100370.50;2237876;78;20969;-75
2021/09/04 06:42:28;;;;;;;23.87;16.85;;;;;;;19.91;63.25;100369.22;2235398;78;20932;-74
2021/09/04 06:45:29;;;;;;;24.07;17.35;;;;;;;20.14;62.62;100366.70;2236435;78;20986;-73
2021/09/04 06:48:32;;;;;;;24.87;15.98;;;;;;;20.09;62.00;100380.00;2233243;78;21059;-73
2021/09/04 06:51:33;;;;;;;23.27;17.42;;;;;;;19.84;62.00;100374.66;2234909;78;21484;-75
2021/09/04 06:54:34;;;;;;;23.57;17.12;;;;;;;19.64;62.52;100375.33;2239177;78;20977;-74
2021/09/04 06:57:36;;;;;;;22.32;16.75;;;;;;;19.84;63.04;100378.69;2234208;78;21042;-75
2021/09/04 07:00:37;;;;;;;27.60;17.45;;;;;;;20.32;63.23;100379.34;2234222;78;21598;-75
2021/09/04 07:03:38;;;;;;;24.72;17.82;;;;;;;20.59;62.78;100377.73;2235575;78;21033;-77
2021/09/04 07:06:40;;;;;;;26.00;18.45;;;;;;;20.85;61.14;100380.59;2233696;78;21093;-75
2021/09/04 07:09:41;;;;;;;28.38;19.00;;;;;;;20.66;61.24;100381.67;2235470;78;21548;-78
2021/09/04 07:12:42;;;;;;;28.67;18.25;;;;;;;20.48;61.09;100383.31;2237070;78;20950;-77
2021/09/04 07:15:43;;;;;;;27.45;18.60;;;;;;;20.67;61.12;100382.00;2237079;78;20955;-76
2021/09/04 07:18:46;;;;;;;28.42;19.57;;;;;;;20.71;60.83;100384.52;2234687;78;21009;-76
2021/09/04 07:21:48;;;;;;;27.40;20.23;;;;;;;20.64;59.66;100388.66;2234681;78;20954;-77
2021/09/04 07:24:49;;;;;;;27.32;19.35;;;;;;;20.43;59.93;100392.59;2238027;78;21073;-76
2021/09/04 07:27:50;;;;;;;27.20;20.68;;;;;;;20.39;60.35;100396.80;2237718;78;20956;-78
2021/09/04 07:30:51;;;;;;;29.42;20.12;;;;;;;20.15;60.12;100396.61;2234637;78;20997;-77
2021/09/04 07:33:52;;;;;;;30.12;19.92;;;;;;;20.18;60.09;100395.34;2233139;78;21375;-80
2021/09/04 07:36:53;;;;;;;28.47;19.80;;;;;;;20.47;60.39;100403.23;2226350;78;20989;-76
2021/09/04 07:39:54;;;;;;;27.22;19.40;;;;;;;20.64;59.98;100402.14;2237588;78;21028;-75
2021/09/04 07:42:55;;;;;;;26.80;18.37;;;;;;;20.82;60.18;100398.05;2233377;78;20998;-76
2021/09/04 07:45:56;;;;;;;29.57;18.05;;;;;;;21.13;60.02;100402.94;2229949;78;21025;-75
2021/09/04 07:48:57;;;;;;;30.37;19.75;;;;;;;21.25;59.27;100410.53;2224850;78;21017;-77
2021/09/04 07:51:59;;;;;;;28.30;17.10;;;;;;;21.13;59.77;100408.86;2195077;79;21035;-75
2021/09/04 07:55:00;;;;;;;24.72;17.35;;;;;;;21.28;58.95;100409.25;2181906;81;21494;-83
2021/09/04 07:58:01;;;;;;;23.52;16.93;;;;;;;20.98;58.44;100408.75;2176481;80;21085;-82
2021/09/04 08:01:03;;;;;;;26.50;17.15;;;;;;;20.87;58.98;100406.00;2181305;81;21014;-77
2021/09/04 08:04:04;;;;;;;25.27;17.70;;;;;;;20.96;58.66;100401.94;2168595;81;21010;-79
2021/09/04 08:07:06;;;;;;;26.68;17.37;;;;;;;21.06;58.50;100411.63;2221283;79;21032;-76
2021/09/04 08:10:08;;;;;;;24.20;17.40;;;;;;;21.54;59.02;100409.42;2197745;80;20966;-79
2021/09/04 08:13:10;;;;;;;22.65;16.97;;;;;;;21.60;58.15;100406.33;2190875;79;20951;-77
2021/09/04 08:16:12;;;;;;;25.12;18.32;;;;;;;21.66;57.44;100417.55;2195568;79;21001;-78
2021/09/04 08:19:13;;;;;;;25.10;17.37;;;;;;;21.62;57.12;100420.39;2180412;80;20945;-78
2021/09/04 08:22:15;;;;;;;26.95;18.15;;;;;;;21.71;56.97;100425.77;2178910;80;21390;-78
2021/09/04 08:25:16;;;;;;;27.40;18.70;;;;;;;21.78;57.29;100419.72;2178694;80;21009;-75
2021/09/04 08:28:18;;;;;;;25.77;18.37;;;;;;;21.92;56.28;100421.67;2175910;80;20994;-77
2021/09/04 08:31:19;;;;;;;25.82;18.15;;;;;;;21.92;56.72;100424.38;2179356;80;20977;-77
2021/09/04 08:34:20;;;;;;;25.20;17.15;;;;;;;22.06;56.25;100420.37;2182688;80;21048;-78
2021/09/04 08:37:21;;;;;;;27.87;19.02;;;;;;;22.10;55.67;100411.27;2175019;80;20987;-78
2021/09/04 08:40:23;;;;;;;24.95;18.27;;;;;;;22.03;55.98;100423.55;2178535;80;21313;-80
2021/09/04 08:43:24;;;;;;;25.48;17.82;;;;;;;21.99;56.20;100425.09;2174324;80;21063;-79
2021/09/04 08:46:36;;;;;;;25.60;18.35;;;;;;;21.93;55.36;100422.80;2179187;80;21624;-80
2021/09/04 08:49:39;;;;;;;23.62;17.52;;;;;;;22.05;55.62;100421.98;2183750;79;21065;-79
2021/09/04 08:52:41;;;;;;;25.08;17.23;;;;;;;22.36;55.96;100426.22;2217781;79;22677;-81
2021/09/04 08:55:42;;;;;;;21.97;17.12;;;;;;;22.67;55.11;100423.63;2215179;79;21014;-78
2021/09/04 08:58:43;;;;;;;26.12;16.07;;;;;;;22.65;53.27;100425.75;2213613;79;20981;-79
2021/09/04 09:01:45;;;;;;;28.87;18.62;;;;;;;22.59;54.52;100430.77;2207876;79;20964;-79
2021/09/04 09:05:07;;;;;;;22.60;16.97;;;;;;;22.87;54.36;100428.62;2217634;79;21015;-79
2021/09/04 09:08:16;;;;;;;20.12;14.83;;;;;;;23.05;54.06;100437.11;2217638;79;21443;-79
2021/09/04 09:11:17;;;;;;;23.35;15.05;;;;;;;23.13;52.93;100433.20;2211031;79;20991;-80
2021/09/04 09:14:20;;;;;;;24.57;16.35;;;;;;;22.69;53.00;100439.60;2221967;79;21000;-80
2021/09/04 09:17:25;;;;;;;22.07;16.15;;;;;;;22.12;53.59;100438.88;2226003;79;20990;-78
2021/09/04 09:20:29;;;;;;;26.73;17.95;;;;;;;22.52;54.01;100432.77;2237844;79;21044;-78
2021/09/04 09:23:32;;;;;;;28.92;22.25;;;;;;;22.75;53.79;100438.64;2231858;78;20989;-82
2021/09/04 09:26:33;;;;;;;25.30;15.68;;;;;;;22.72;53.86;100437.27;2238775;78;21023;-81
2021/09/04 09:29:36;;;;;;;20.25;14.83;;;;;;;22.74;53.83;100434.30;2237776;78;20982;-76
2021/09/04 09:32:37;;;;;;;26.52;15.30;;;;;;;22.28;52.58;100438.20;2232215;78;20985;-79
2021/09/04 09:35:44;;;;;;;22.82;15.30;;;;;;;21.49;53.77;100440.34;2238250;78;20963;-79
2021/09/04 09:38:45;;;;;;;20.43;14.28;;;;;;;21.31;54.30;100439.82;2234267;78;21021;-78
2021/09/04 09:41:49;;;;;;;19.37;14.25;;;;;;;21.05;54.58;100436.44;2235774;78;21460;-78
2021/09/04 09:44:53;;;;;;;25.27;15.63;;;;;;;21.01;55.19;100437.96;2237479;78;21028;-79
2021/09/04 09:47:54;;;;;;;20.48;14.35;;;;;;;21.48;55.96;100430.58;2202012;78;21064;-80
2021/09/04 09:50:59;;;;;;;18.80;13.62;;;;;;;21.81;55.01;100426.00;2230681;78;20986;-79
2021/09/04 09:54:00;;;;;;;22.10;14.53;;;;;;;21.93;54.16;100432.25;2228795;78;20958;-79
2021/09/04 09:57:09;;;;;;;22.07;14.30;;;;;;;22.00;54.75;100437.53;2227381;80;21005;-79
2021/09/04 10:00:12;;;;;;;21.23;15.05;;;;;;;22.08;53.52;100432.31;2227318;80;21523;-76
2021/09/04 10:03:15;;;;;;;23.70;14.58;;;;;;;21.99;54.70;100433.70;2217002;79;21555;-78
2021/09/04 10:06:17;;;;;;;26.97;15.43;;;;;;;22.25;54.40;100427.88;2211793;79;21445;-78
2021/09/04 10:09:18;;;;;;;25.90;15.58;;;;;;;22.46;53.35;100431.83;2216842;79;21285;-79
2021/09/04 10:12:21;;;;;;;16.17;13.70;;;;;;;22.29;53.29;100426.86;2212088;79;21014;-78
2021/09/04 10:15:27;;;;;;;19.37;13.20;;;;;;;22.12;53.81;100428.89;2210277;80;20927;-76
2021/09/04 10:18:28;;;;;;;20.05;14.43;;;;;;;22.05;53.04;100430.91;2210257;79;21005;-76
2021/09/04 10:21:39;;;;;;;20.08;14.38;;;;;;;21.99;52.71;100422.89;2193745;80;20963;-77
2021/09/04 10:24:53;;;;;;;19.12;14.38;;;;;;;22.28;53.33;100427.93;2195854;80;21038;-76
2021/09/04 10:27:57;;;;;;;20.10;13.93;;;;;;;22.42;53.28;100424.45;2188070;80;20954;-77
2021/09/04 10:30:59;;;;;;;18.98;13.68;;;;;;;22.95;53.10;100423.37;2209667;79;21044;-75
2021/09/04 10:34:19;;;;;;;20.45;13.38;;;;;;;23.56;53.49;100425.84;2214306;79;22478;-76
2021/09/04 10:37:20;;;;;;;;;;;;;;;23.94;51.28;100421.62;2213577;79;20970;-76
2021/09/04 10:40:37;;;;;;;22.40;15.23;;;;;;;23.45;49.29;100424.03;2209625;79;20135;-76
2021/09/04 10:43:44;;;;;;;23.90;14.13;;;;;;;22.59;50.95;100424.00;2208245;79;21051;-76
2021/09/04 10:46:47;;;;;;;18.87;13.43;;;;;;;22.04;51.59;100424.37;2212831;79;21684;-79
2021/09/04 10:49:52;;;;;;;23.22;15.10;;;;;;;21.24;52.45;100413.47;2204535;78;21030;-77
2021/09/04 10:53:05;;;;;;;22.48;14.47;;;;;;;21.02;53.40;100424.77;2238479;78;21172;-75
2021/09/04 10:56:31;;;;;;;22.85;14.73;;;;;;;20.90;53.53;100423.89;2224832;79;21456;-78
2021/09/04 11:00:01;;;;;;;21.37;15.53;;;;;;;20.79;53.90;100424.66;2218598;79;21493;-75
2021/09/04 11:03:18;;;;;;;27.25;15.53;;;;;;;20.63;54.28;100423.92;2170374;79;21035;-80
2021/09/04 11:06:24;;;;;;;23.65;15.85;;;;;;;20.51;54.79;100417.08;2221978;79;20985;-77
2021/09/04 11:09:49;;;;;;;22.73;14.40;;;;;;;20.43;54.91;100422.77;2198782;79;20974;-76
2021/09/04 11:13:19;;;;;;;21.55;14.73;;;;;;;21.00;55.20;100428.20;2219934;79;21021;-76
2021/09/04 11:16:47;;;;;;;19.20;13.65;;;;;;;21.49;54.49;100426.84;2252248;78;21002;-74
2021/09/04 11:19:49;;;;;;;18.75;13.78;;;;;;;21.92;53.41;100423.02;2222419;79;21002;-79
2021/09/04 11:22:50;;;;;;;20.55;14.38;;;;;;;22.35;52.33;100429.42;2221927;79;20990;-78
2021/09/04 11:25:52;;;;;;;16.97;13.13;;;;;;;22.41;51.92;100422.79;2222305;79;21098;-78
2021/09/04 11:28:57;;;;;;;30.72;13.90;;;;;;;22.76;50.78;100419.48;2224135;79;20985;-75
2021/09/04 11:32:01;;;;;;;19.67;13.18;;;;;;;23.08;51.63;100409.56;2223661;79;21259;-79
2021/09/04 11:35:04;;;;;;;25.08;12.95;;;;;;;23.45;50.49;100407.27;2223402;79;20977;-78
2021/09/04 11:38:05;;;;;;;15.85;11.60;;;;;;;23.79;50.32;100398.34;2223738;79;20950;-78
2021/09/04 11:41:06;;;;;;;18.10;12.50;;;;;;;24.14;50.06;100398.06;2227005;78;20931;-77
2021/09/04 11:44:10;;;;;;;18.30;12.85;;;;;;;24.46;49.45;100400.13;2221331;78;20935;-77
2021/09/04 11:47:16;;;;;;;18.70;13.25;;;;;;;24.72;48.48;100398.03;2231124;78;21459;-78
2021/09/04 11:50:24;;;;;;;20.25;12.85;;;;;;;24.37;47.43;100392.95;2227913;78;20976;-75
2021/09/04 11:53:27;;;;;;;19.07;13.45;;;;;;;24.11;48.48;100399.92;2221064;79;21020;-77
2021/09/04 11:56:31;;;;;;;21.10;12.85;;;;;;;23.79;46.59;100394.28;2225836;79;20994;-78
2021/09/04 11:59:32;;;;;;;18.77;13.50;;;;;;;23.59;47.70;100399.63;2222031;78;21501;-79
2021/09/04 12:02:36;;;;;;;15.93;12.23;;;;;;;23.43;47.88;100399.11;2224165;79;20973;-80
2021/09/04 12:05:41;;;;;;;20.32;13.32;;;;;;;23.43;47.75;100393.69;2227013;79;21447;-75
2021/09/04 12:08:44;;;;;;;18.00;13.03;;;;;;;22.87;47.52;100400.76;2223346;79;21524;-79
2021/09/04 12:11:46;;;;;;;26.12;12.75;;;;;;;22.51;47.86;100406.26;2223738;79;21019;-81
2021/09/04 12:14:49;;;;;;;16.62;12.03;;;;;;;22.43;48.59;100404.45;2225975;79;21130;-78
2021/09/04 12:18:03;;;;;;;26.17;12.15;;;;;;;22.48;48.73;100404.57;2222250;79;21547;-78
2021/09/04 12:21:28;;;;;;;19.80;12.00;;;;;;;22.52;49.14;100403.84;2223330;78;21044;-78
2021/09/04 12:24:33;;;;;;;16.17;12.15;;;;;;;22.92;48.40;100402.19;2216552;78;20993;-77
2021/09/04 12:27:40;;;;;;;16.12;12.05;;;;;;;23.06;47.24;100404.95;2226446;79;21013;-78
2021/09/04 12:31:07;;;;;;;18.10;12.50;;;;;;;23.02;47.53;100399.18;2227398;79;21012;-76
2021/09/04 12:34:08;;;;;;;16.05;11.63;;;;;;;23.12;47.51;100392.33;2219593;79;20993;-77
2021/09/04 12:37:26;;;;;;;21.73;11.93;;;;;;;23.29;47.39;100393.72;2222440;79;21020;-78
2021/09/04 12:40:27;;;;;;;19.15;12.98;;;;;;;23.24;47.76;100392.55;2223764;78;21025;-75
2021/09/04 12:43:29;;;;;;;16.07;12.10;;;;;;;22.92;47.63;100396.78;2223157;79;20992;-75
2021/09/04 12:46:51;;;;;;;16.32;12.00;;;;;;;22.76;48.02;100394.33;2230313;79;20997;-77
2021/09/04 12:50:21;;;;;;;20.23;13.08;;;;;;;22.89;48.41;100397.26;2227203;79;21052;-79
2021/09/04 12:53:25;;;;;;;16.48;12.18;;;;;;;23.10;48.90;100399.87;2124906;82;21036;-77
2021/09/04 12:56:36;;;;;;;18.92;12.50;;;;;;;23.38;48.45;100406.59;2126557;82;21508;-77
2021/09/04 12:59:56;;;;;;;16.10;13.15;;;;;;;23.52;47.87;100409.00;2125728;82;21069;-78
2021/09/04 13:02:57;;;;;;;20.02;13.18;;;;;;;23.40;47.16;100403.66;2123875;82;21089;-78
2021/09/04 13:05:58;;;;;;;16.02;12.68;;;;;;;23.09;47.39;100404.97;2124205;82;21012;-80
2021/09/04 13:09:01;;;;;;;18.02;12.95;;;;;;;22.98;47.37;100405.34;2132543;82;21019;-77
2021/09/04 13:12:03;;;;;;;20.57;13.48;;;;;;;22.87;46.70;100398.05;2129677;82;21078;-79
2021/09/04 13:15:06;;;;;;;18.80;13.00;;;;;;;22.79;47.12;100397.90;2077086;84;20954;-77
2021/09/04 13:18:08;;;;;;;19.00;12.63;;;;;;;22.81;47.25;100402.01;2076142;84;21061;-77
2021/09/04 13:21:10;;;;;;;16.12;13.22;;;;;;;22.96;47.16;100402.05;2077163;84;21555;-79
2021/09/04 13:24:11;;;;;;;17.23;12.40;;;;;;;23.00;46.71;100400.48;2076183;84;21002;-79
2021/09/04 13:27:12;;;;;;;16.07;12.35;;;;;;;22.80;47.17;100390.88;2129905;82;21063;-76
2021/09/04 13:30:15;;;;;;;18.25;13.08;;;;;;;22.97;47.02;100398.26;2133066;82;21071;-75
2021/09/04 13:33:17;;;;;;;26.80;13.22;;;;;;;22.90;46.76;100392.16;2085664;84;21554;-78
2021/09/04 13:36:17;;;;;;;15.32;11.35;;;;;;;22.80;47.26;100392.23;2096634;83;21012;-77
2021/09/04 13:39:19;;;;;;;15.08;11.25;;;;;;;22.87;46.54;100392.11;2085899;84;21029;-77
2021/09/04 13:42:20;;;;;;;19.02;10.78;;;;;;;22.66;45.79;100392.22;2131760;82;21031;-79
2021/09/04 13:45:21;;;;;;;16.55;11.53;;;;;;;22.73;46.81;100395.63;2091152;84;21071;-80
2021/09/04 13:48:22;;;;;;;17.90;11.45;;;;;;;22.60;45.74;100391.83;2088792;84;21032;-79
2021/09/04 13:51:23;;;;;;;13.65;11.85;;;;;;;22.41;47.23;100396.57;2120404;82;21051;-78
2021/09/04 13:54:25;;;;;;;15.80;12.33;;;;;;;22.27;47.07;100391.13;2096898;84;21011;-81
2021/09/04 13:57:26;;;;;;;16.10;12.05;;;;;;;22.13;47.24;100387.31;2096871;84;20988;-79